sensor_id;sensor_type;location;lat;lon;timestamp;P1;durP1;ratioP1;P2;durP2;ratioP2
70675;SDS011;59069;52.242;20.900;2023-03-31T00:01:32;19.15;;;8.13;;
70675;SDS011;59069;52.242;20.900;2023-03-31T00:03:58;17.35;;;7.70;;
70675;SDS011;59069;52.242;20.900;2023-03-31T00:06:31;15.63;;;7.87;;
70675;SDS011;59069;52.242;20.900;2023-03-31T00:09:06;15.50;;;7.43;;
70675;SDS011;59069;52.242;20.900;2023-03-31T00:11:33;14.90;;;7.18;;
70675;SDS011;59069;52.242;20.900;2023-03-31T00:13:59;14.18;;;7.45;;
70675;SDS011;59069;52.242;20.900;2023-03-31T00:16:25;14.53;;;7.27;;
70675;SDS011;59069;52.242;20.900;2023-03-31T00:18:50;15.90;;;7.57;;
70675;SDS011;59069;52.242;20.900;2023-03-31T00:21:17;15.30;;;7.50;;
70675;SDS011;59069;52.242;20.900;2023-03-31T00:23:51;14.43;;;7.35;;
70675;SDS011;59069;52.242;20.900;2023-03-31T00:26:18;16.07;;;7.40;;
70675;SDS011;59069;52.242;20.900;2023-03-31T00:28:46;15.43;;;6.88;;
70675;SDS011;59069;52.242;20.900;2023-03-31T00:31:11;16.60;;;7.03;;
70675;SDS011;59069;52.242;20.900;2023-03-31T00:33:37;15.03;;;7.20;;
70675;SDS011;59069;52.242;20.900;2023-03-31T00:36:02;15.20;;;7.00;;
70675;SDS011;59069;52.242;20.900;2023-03-31T00:38:30;16.45;;;8.10;;
70675;SDS011;59069;52.242;20.900;2023-03-31T00:40:57;12.07;;;6.43;;
70675;SDS011;59069;52.242;20.900;2023-03-31T00:43:30;16.17;;;7.75;;
70675;SDS011;59069;52.242;20.900;2023-03-31T00:46:04;16.52;;;7.70;;
70675;SDS011;59069;52.242;20.900;2023-03-31T00:48:31;13.70;;;7.20;;
70675;SDS011;59069;52.242;20.900;2023-03-31T00:50:58;14.57;;;6.75;;
70675;SDS011;59069;52.242;20.900;2023-03-31T00:53:30;16.35;;;7.00;;
70675;SDS011;59069;52.242;20.900;2023-03-31T00:56:00;17.92;;;7.43;;
70675;SDS011;59069;52.242;20.900;2023-03-31T00:58:31;17.45;;;7.38;;
70675;SDS011;59069;52.242;20.900;2023-03-31T01:00:57;12.83;;;6.33;;
70675;SDS011;59069;52.242;20.900;2023-03-31T01:03:27;13.38;;;6.00;;
70675;SDS011;59069;52.242;20.900;2023-03-31T01:05:58;15.98;;;7.28;;
70675;SDS011;59069;52.242;20.900;2023-03-31T01:08:29;15.63;;;6.32;;
70675;SDS011;59069;52.242;20.900;2023-03-31T01:10:57;15.50;;;6.87;;
70675;SDS011;59069;52.242;20.900;2023-03-31T01:13:26;14.77;;;6.75;;
70675;SDS011;59069;52.242;20.900;2023-03-31T01:15:54;15.10;;;6.85;;
70675;SDS011;59069;52.242;20.900;2023-03-31T01:18:20;15.57;;;6.93;;
70675;SDS011;59069;52.242;20.900;2023-03-31T01:40:27;15.02;;;6.72;;
70675;SDS011;59069;52.242;20.900;2023-03-31T01:51:01;14.82;;;6.90;;
70675;SDS011;59069;52.242;20.900;2023-03-31T02:01:34;14.70;;;6.80;;
70675;SDS011;59069;52.242;20.900;2023-03-31T02:04:12;14.30;;;6.68;;
70675;SDS011;59069;52.242;20.900;2023-03-31T02:06:42;15.77;;;6.93;;
70675;SDS011;59069;52.242;20.900;2023-03-31T02:09:12;14.57;;;6.47;;
70675;SDS011;59069;52.242;20.900;2023-03-31T02:11:41;15.23;;;6.90;;
70675;SDS011;59069;52.242;20.900;2023-03-31T02:14:09;11.95;;;6.15;;
70675;SDS011;59069;52.242;20.900;2023-03-31T02:16:38;13.60;;;7.18;;
70675;SDS011;59069;52.242;20.900;2023-03-31T02:19:11;12.65;;;6.43;;
70675;SDS011;59069;52.242;20.900;2023-03-31T02:21:42;14.70;;;7.22;;
70675;SDS011;59069;52.242;20.900;2023-03-31T02:24:12;12.03;;;6.67;;
70675;SDS011;59069;52.242;20.900;2023-03-31T02:26:41;14.05;;;6.78;;
70675;SDS011;59069;52.242;20.900;2023-03-31T02:29:11;14.50;;;6.88;;
70675;SDS011;59069;52.242;20.900;2023-03-31T02:31:40;13.40;;;6.53;;
70675;SDS011;59069;52.242;20.900;2023-03-31T02:34:12;14.43;;;6.20;;
70675;SDS011;59069;52.242;20.900;2023-03-31T02:36:37;12.60;;;6.53;;
70675;SDS011;59069;52.242;20.900;2023-03-31T02:39:08;11.93;;;6.00;;
70675;SDS011;59069;52.242;20.900;2023-03-31T02:41:48;12.07;;;6.50;;
70675;SDS011;59069;52.242;20.900;2023-03-31T02:44:14;11.35;;;6.07;;
70675;SDS011;59069;52.242;20.900;2023-03-31T02:46:40;12.05;;;5.65;;
70675;SDS011;59069;52.242;20.900;2023-03-31T02:49:07;14.00;;;6.57;;
70675;SDS011;59069;52.242;20.900;2023-03-31T02:54:36;12.70;;;6.63;;
70675;SDS011;59069;52.242;20.900;2023-03-31T03:02:50;13.63;;;6.47;;
70675;SDS011;59069;52.242;20.900;2023-03-31T03:05:48;11.60;;;6.03;;
70675;SDS011;59069;52.242;20.900;2023-03-31T03:08:36;14.50;;;6.18;;
70675;SDS011;59069;52.242;20.900;2023-03-31T03:17:31;12.37;;;6.20;;
70675;SDS011;59069;52.242;20.900;2023-03-31T03:19:53;14.07;;;7.00;;
70675;SDS011;59069;52.242;20.900;2023-03-31T03:22:20;14.20;;;6.85;;
70675;SDS011;59069;52.242;20.900;2023-03-31T03:24:45;12.73;;;6.03;;
70675;SDS011;59069;52.242;20.900;2023-03-31T03:27:11;15.77;;;7.60;;
70675;SDS011;59069;52.242;20.900;2023-03-31T03:29:36;13.43;;;6.73;;
70675;SDS011;59069;52.242;20.900;2023-03-31T03:32:02;14.48;;;6.72;;
70675;SDS011;59069;52.242;20.900;2023-03-31T03:34:28;13.07;;;6.07;;
70675;SDS011;59069;52.242;20.900;2023-03-31T03:36:53;12.13;;;6.32;;
70675;SDS011;59069;52.242;20.900;2023-03-31T03:39:19;12.00;;;6.53;;
70675;SDS011;59069;52.242;20.900;2023-03-31T03:41:45;15.20;;;6.53;;
70675;SDS011;59069;52.242;20.900;2023-03-31T03:44:10;12.70;;;7.00;;
70675;SDS011;59069;52.242;20.900;2023-03-31T03:46:36;14.82;;;7.25;;
70675;SDS011;59069;52.242;20.900;2023-03-31T03:49:02;14.47;;;6.97;;
70675;SDS011;59069;52.242;20.900;2023-03-31T03:51:27;16.10;;;7.63;;
70675;SDS011;59069;52.242;20.900;2023-03-31T03:53:53;16.20;;;7.18;;
70675;SDS011;59069;52.242;20.900;2023-03-31T03:56:18;16.87;;;7.20;;
70675;SDS011;59069;52.242;20.900;2023-03-31T03:58:46;14.82;;;7.68;;
70675;SDS011;59069;52.242;20.900;2023-03-31T04:01:11;15.27;;;6.80;;
70675;SDS011;59069;52.242;20.900;2023-03-31T04:03:37;15.45;;;7.88;;
70675;SDS011;59069;52.242;20.900;2023-03-31T04:06:02;16.37;;;7.73;;
70675;SDS011;59069;52.242;20.900;2023-03-31T04:08:28;15.02;;;7.65;;
70675;SDS011;59069;52.242;20.900;2023-03-31T04:10:54;16.70;;;7.77;;
70675;SDS011;59069;52.242;20.900;2023-03-31T04:13:19;14.93;;;7.43;;
70675;SDS011;59069;52.242;20.900;2023-03-31T04:15:45;15.25;;;7.35;;
70675;SDS011;59069;52.242;20.900;2023-03-31T04:18:11;15.90;;;7.33;;
70675;SDS011;59069;52.242;20.900;2023-03-31T04:20:43;15.90;;;8.00;;
70675;SDS011;59069;52.242;20.900;2023-03-31T04:23:09;15.32;;;7.47;;
70675;SDS011;59069;52.242;20.900;2023-03-31T04:25:38;15.90;;;8.48;;
70675;SDS011;59069;52.242;20.900;2023-03-31T04:28:10;18.65;;;8.32;;
70675;SDS011;59069;52.242;20.900;2023-03-31T04:30:38;15.57;;;8.23;;
70675;SDS011;59069;52.242;20.900;2023-03-31T04:33:04;15.43;;;7.30;;
70675;SDS011;59069;52.242;20.900;2023-03-31T04:35:30;17.77;;;7.95;;
70675;SDS011;59069;52.242;20.900;2023-03-31T04:38:13;20.52;;;8.85;;
70675;SDS011;59069;52.242;20.900;2023-03-31T04:40:44;19.33;;;8.53;;
70675;SDS011;59069;52.242;20.900;2023-03-31T04:43:11;16.40;;;7.85;;
70675;SDS011;59069;52.242;20.900;2023-03-31T04:45:37;16.95;;;8.88;;
70675;SDS011;59069;52.242;20.900;2023-03-31T04:48:02;18.93;;;8.50;;
70675;SDS011;59069;52.242;20.900;2023-03-31T04:50:28;18.17;;;8.87;;
70675;SDS011;59069;52.242;20.900;2023-03-31T04:52:53;18.27;;;9.18;;
70675;SDS011;59069;52.242;20.900;2023-03-31T04:55:19;20.83;;;9.07;;
70675;SDS011;59069;52.242;20.900;2023-03-31T04:57:45;19.50;;;8.70;;
70675;SDS011;59069;52.242;20.900;2023-03-31T05:00:11;19.70;;;8.60;;
70675;SDS011;59069;52.242;20.900;2023-03-31T05:02:37;18.38;;;8.95;;
70675;SDS011;59069;52.242;20.900;2023-03-31T05:05:05;18.27;;;8.27;;
70675;SDS011;59069;52.242;20.900;2023-03-31T05:07:31;19.38;;;8.50;;
70675;SDS011;59069;52.242;20.900;2023-03-31T05:09:57;18.07;;;8.83;;
70675;SDS011;59069;52.242;20.900;2023-03-31T05:12:22;20.50;;;8.82;;
70675;SDS011;59069;52.242;20.900;2023-03-31T05:14:48;18.03;;;9.30;;
70675;SDS011;59069;52.242;20.900;2023-03-31T05:17:14;20.60;;;9.73;;
70675;SDS011;59069;52.242;20.900;2023-03-31T05:19:42;22.02;;;10.35;;
70675;SDS011;59069;52.242;20.900;2023-03-31T05:22:08;19.17;;;9.95;;
70675;SDS011;59069;52.242;20.900;2023-03-31T05:24:33;19.10;;;9.40;;
70675;SDS011;59069;52.242;20.900;2023-03-31T05:26:59;19.85;;;9.77;;
70675;SDS011;59069;52.242;20.900;2023-03-31T05:29:25;18.75;;;9.55;;
70675;SDS011;59069;52.242;20.900;2023-03-31T05:31:51;19.83;;;9.57;;
70675;SDS011;59069;52.242;20.900;2023-03-31T05:34:19;19.05;;;9.00;;
70675;SDS011;59069;52.242;20.900;2023-03-31T05:36:45;20.20;;;9.40;;
70675;SDS011;59069;52.242;20.900;2023-03-31T05:39:12;19.13;;;10.02;;
70675;SDS011;59069;52.242;20.900;2023-03-31T05:41:38;19.42;;;8.80;;
70675;SDS011;59069;52.242;20.900;2023-03-31T05:44:04;20.40;;;9.60;;
70675;SDS011;59069;52.242;20.900;2023-03-31T05:46:30;19.10;;;9.23;;
70675;SDS011;59069;52.242;20.900;2023-03-31T05:48:55;21.08;;;10.73;;
70675;SDS011;59069;52.242;20.900;2023-03-31T05:51:21;19.70;;;9.27;;
70675;SDS011;59069;52.242;20.900;2023-03-31T05:53:47;21.95;;;9.20;;
70675;SDS011;59069;52.242;20.900;2023-03-31T05:56:12;21.37;;;9.40;;
70675;SDS011;59069;52.242;20.900;2023-03-31T05:58:38;19.40;;;9.17;;
70675;SDS011;59069;52.242;20.900;2023-03-31T06:01:07;19.50;;;9.27;;
70675;SDS011;59069;52.242;20.900;2023-03-31T06:03:35;20.88;;;9.25;;
70675;SDS011;59069;52.242;20.900;2023-03-31T06:06:05;18.10;;;9.20;;
70675;SDS011;59069;52.242;20.900;2023-03-31T06:08:32;18.93;;;9.13;;
70675;SDS011;59069;52.242;20.900;2023-03-31T06:10:59;19.67;;;9.65;;
70675;SDS011;59069;52.242;20.900;2023-03-31T06:13:25;18.77;;;8.50;;
70675;SDS011;59069;52.242;20.900;2023-03-31T06:15:57;17.53;;;9.87;;
70675;SDS011;59069;52.242;20.900;2023-03-31T06:18:25;16.83;;;8.88;;
70675;SDS011;59069;52.242;20.900;2023-03-31T06:20:54;18.98;;;9.13;;
70675;SDS011;59069;52.242;20.900;2023-03-31T06:23:21;17.27;;;8.65;;
70675;SDS011;59069;52.242;20.900;2023-03-31T06:25:47;17.80;;;8.88;;
70675;SDS011;59069;52.242;20.900;2023-03-31T06:28:13;17.53;;;9.47;;
70675;SDS011;59069;52.242;20.900;2023-03-31T06:30:39;19.40;;;10.07;;
70675;SDS011;59069;52.242;20.900;2023-03-31T06:33:04;17.05;;;9.35;;
70675;SDS011;59069;52.242;20.900;2023-03-31T06:35:30;20.77;;;9.57;;
70675;SDS011;59069;52.242;20.900;2023-03-31T06:37:55;17.70;;;9.77;;
70675;SDS011;59069;52.242;20.900;2023-03-31T06:40:21;21.42;;;9.60;;
70675;SDS011;59069;52.242;20.900;2023-03-31T06:42:47;22.77;;;10.40;;
70675;SDS011;59069;52.242;20.900;2023-03-31T06:45:13;18.80;;;10.27;;
70675;SDS011;59069;52.242;20.900;2023-03-31T06:47:38;19.23;;;9.93;;
70675;SDS011;59069;52.242;20.900;2023-03-31T06:50:06;22.45;;;11.52;;
70675;SDS011;59069;52.242;20.900;2023-03-31T06:52:33;20.15;;;11.52;;
70675;SDS011;59069;52.242;20.900;2023-03-31T06:55:00;20.45;;;11.45;;
70675;SDS011;59069;52.242;20.900;2023-03-31T06:57:26;19.90;;;10.50;;
70675;SDS011;59069;52.242;20.900;2023-03-31T06:59:52;21.70;;;10.52;;
70675;SDS011;59069;52.242;20.900;2023-03-31T07:02:18;23.77;;;10.82;;
70675;SDS011;59069;52.242;20.900;2023-03-31T07:04:43;18.80;;;10.93;;
70675;SDS011;59069;52.242;20.900;2023-03-31T07:07:09;19.65;;;10.65;;
70675;SDS011;59069;52.242;20.900;2023-03-31T07:09:35;21.73;;;11.27;;
70675;SDS011;59069;52.242;20.900;2023-03-31T07:12:00;20.20;;;11.20;;
70675;SDS011;59069;52.242;20.900;2023-03-31T07:14:29;23.25;;;12.07;;
70675;SDS011;59069;52.242;20.900;2023-03-31T07:16:55;21.57;;;12.07;;
70675;SDS011;59069;52.242;20.900;2023-03-31T07:19:20;21.50;;;11.23;;
70675;SDS011;59069;52.242;20.900;2023-03-31T07:21:47;25.00;;;11.67;;
70675;SDS011;59069;52.242;20.900;2023-03-31T07:24:12;22.58;;;12.18;;
70675;SDS011;59069;52.242;20.900;2023-03-31T07:26:38;23.50;;;11.67;;
70675;SDS011;59069;52.242;20.900;2023-03-31T07:29:03;22.63;;;12.75;;
70675;SDS011;59069;52.242;20.900;2023-03-31T07:31:29;24.75;;;12.30;;
70675;SDS011;59069;52.242;20.900;2023-03-31T07:33:55;22.93;;;12.30;;
70675;SDS011;59069;52.242;20.900;2023-03-31T07:36:21;19.95;;;12.07;;
70675;SDS011;59069;52.242;20.900;2023-03-31T07:38:46;23.57;;;11.63;;
70675;SDS011;59069;52.242;20.900;2023-03-31T07:41:16;19.83;;;11.23;;
70675;SDS011;59069;52.242;20.900;2023-03-31T07:43:43;21.27;;;11.68;;
70675;SDS011;59069;52.242;20.900;2023-03-31T07:48:43;23.60;;;11.82;;
70675;SDS011;59069;52.242;20.900;2023-03-31T07:51:10;22.60;;;11.75;;
70675;SDS011;59069;52.242;20.900;2023-03-31T07:53:37;23.05;;;11.55;;
70675;SDS011;59069;52.242;20.900;2023-03-31T07:56:02;18.50;;;10.03;;
70675;SDS011;59069;52.242;20.900;2023-03-31T07:58:28;16.75;;;9.75;;
70675;SDS011;59069;52.242;20.900;2023-03-31T08:00:53;17.07;;;9.33;;
70675;SDS011;59069;52.242;20.900;2023-03-31T08:03:19;15.85;;;8.80;;
70675;SDS011;59069;52.242;20.900;2023-03-31T08:05:45;17.87;;;10.13;;
70675;SDS011;59069;52.242;20.900;2023-03-31T08:08:10;20.47;;;9.93;;
70675;SDS011;59069;52.242;20.900;2023-03-31T08:10:36;20.05;;;9.93;;
70675;SDS011;59069;52.242;20.900;2023-03-31T08:13:01;16.20;;;9.17;;
70675;SDS011;59069;52.242;20.900;2023-03-31T08:15:27;17.85;;;9.90;;
70675;SDS011;59069;52.242;20.900;2023-03-31T08:17:53;20.67;;;8.50;;
70675;SDS011;59069;52.242;20.900;2023-03-31T08:20:18;17.17;;;8.98;;
70675;SDS011;59069;52.242;20.900;2023-03-31T08:22:44;19.03;;;9.67;;
70675;SDS011;59069;52.242;20.900;2023-03-31T08:25:10;18.40;;;8.50;;
70675;SDS011;59069;52.242;20.900;2023-03-31T08:27:36;18.57;;;9.17;;
70675;SDS011;59069;52.242;20.900;2023-03-31T08:30:07;17.52;;;8.60;;
70675;SDS011;59069;52.242;20.900;2023-03-31T08:32:35;17.05;;;8.77;;
70675;SDS011;59069;52.242;20.900;2023-03-31T08:35:01;20.30;;;8.93;;
70675;SDS011;59069;52.242;20.900;2023-03-31T08:37:27;18.27;;;8.57;;
70675;SDS011;59069;52.242;20.900;2023-03-31T08:39:53;18.50;;;8.48;;
70675;SDS011;59069;52.242;20.900;2023-03-31T08:45:10;16.93;;;8.20;;
70675;SDS011;59069;52.242;20.900;2023-03-31T08:50:42;16.92;;;7.95;;
70675;SDS011;59069;52.242;20.900;2023-03-31T08:55:51;17.95;;;7.85;;
70675;SDS011;59069;52.242;20.900;2023-03-31T09:12:22;15.07;;;7.00;;
70675;SDS011;59069;52.242;20.900;2023-03-31T09:15:03;11.63;;;6.28;;
70675;SDS011;59069;52.242;20.900;2023-03-31T09:17:40;14.55;;;6.55;;
70675;SDS011;59069;52.242;20.900;2023-03-31T09:20:15;14.10;;;7.22;;
70675;SDS011;59069;52.242;20.900;2023-03-31T09:23:45;14.50;;;7.22;;
70675;SDS011;59069;52.242;20.900;2023-03-31T09:25:51;12.83;;;6.80;;
70675;SDS011;59069;52.242;20.900;2023-03-31T09:28:22;12.52;;;6.72;;
70675;SDS011;59069;52.242;20.900;2023-03-31T09:31:02;11.18;;;5.95;;
70675;SDS011;59069;52.242;20.900;2023-03-31T09:33:32;12.38;;;6.22;;
70675;SDS011;59069;52.242;20.900;2023-03-31T09:36:00;11.90;;;5.97;;
70675;SDS011;59069;52.242;20.900;2023-03-31T09:38:32;11.45;;;5.45;;
70675;SDS011;59069;52.242;20.900;2023-03-31T09:40:59;10.57;;;5.75;;
70675;SDS011;59069;52.242;20.900;2023-03-31T09:43:29;13.33;;;5.90;;
70675;SDS011;59069;52.242;20.900;2023-03-31T09:45:59;12.23;;;5.70;;
70675;SDS011;59069;52.242;20.900;2023-03-31T09:48:26;11.88;;;6.30;;
70675;SDS011;59069;52.242;20.900;2023-03-31T09:50:56;12.90;;;5.80;;
70675;SDS011;59069;52.242;20.900;2023-03-31T09:54:25;10.93;;;5.70;;
70675;SDS011;59069;52.242;20.900;2023-03-31T09:59:11;15.43;;;4.82;;
70675;SDS011;59069;52.242;20.900;2023-03-31T10:01:40;11.50;;;5.40;;
70675;SDS011;59069;52.242;20.900;2023-03-31T10:04:09;16.97;;;5.17;;
70675;SDS011;59069;52.242;20.900;2023-03-31T10:06:48;11.33;;;5.30;;
70675;SDS011;59069;52.242;20.900;2023-03-31T10:09:17;11.57;;;4.65;;
70675;SDS011;59069;52.242;20.900;2023-03-31T10:11:56;10.23;;;3.95;;
70675;SDS011;59069;52.242;20.900;2023-03-31T10:14:25;9.45;;;4.07;;
70675;SDS011;59069;52.242;20.900;2023-03-31T10:16:56;11.10;;;4.07;;
70675;SDS011;59069;52.242;20.900;2023-03-31T10:19:23;14.30;;;4.43;;
70675;SDS011;59069;52.242;20.900;2023-03-31T10:21:58;10.18;;;3.50;;
70675;SDS011;59069;52.242;20.900;2023-03-31T10:24:38;11.05;;;4.28;;
70675;SDS011;59069;52.242;20.900;2023-03-31T10:27:06;11.00;;;3.97;;
70675;SDS011;59069;52.242;20.900;2023-03-31T10:29:43;10.35;;;4.13;;
70675;SDS011;59069;52.242;20.900;2023-03-31T10:32:13;10.17;;;3.97;;
70675;SDS011;59069;52.242;20.900;2023-03-31T10:34:48;11.75;;;3.25;;
70675;SDS011;59069;52.242;20.900;2023-03-31T10:37:17;11.30;;;3.63;;
70675;SDS011;59069;52.242;20.900;2023-03-31T10:39:46;12.10;;;4.22;;
70675;SDS011;59069;52.242;20.900;2023-03-31T10:42:20;11.20;;;3.30;;
70675;SDS011;59069;52.242;20.900;2023-03-31T10:44:47;10.77;;;3.70;;
70675;SDS011;59069;52.242;20.900;2023-03-31T10:49:38;10.53;;;4.30;;
70675;SDS011;59069;52.242;20.900;2023-03-31T10:52:16;11.85;;;4.15;;
70675;SDS011;59069;52.242;20.900;2023-03-31T10:54:52;10.45;;;3.88;;
70675;SDS011;59069;52.242;20.900;2023-03-31T10:57:26;10.27;;;4.30;;
70675;SDS011;59069;52.242;20.900;2023-03-31T11:08:23;10.20;;;3.72;;
70675;SDS011;59069;52.242;20.900;2023-03-31T11:13:38;10.57;;;4.03;;
70675;SDS011;59069;52.242;20.900;2023-03-31T11:16:32;10.50;;;4.18;;
70675;SDS011;59069;52.242;20.900;2023-03-31T11:24:30;11.50;;;4.78;;
70675;SDS011;59069;52.242;20.900;2023-03-31T11:38:19;10.50;;;4.28;;
70675;SDS011;59069;52.242;20.900;2023-03-31T11:46:07;10.98;;;4.10;;
70675;SDS011;59069;52.242;20.900;2023-03-31T11:51:25;9.85;;;4.30;;
70675;SDS011;59069;52.242;20.900;2023-03-31T11:54:03;8.20;;;4.30;;
70675;SDS011;59069;52.242;20.900;2023-03-31T11:56:37;11.52;;;4.47;;
70675;SDS011;59069;52.242;20.900;2023-03-31T11:59:04;11.43;;;4.72;;
70675;SDS011;59069;52.242;20.900;2023-03-31T12:12:42;11.02;;;3.78;;
70675;SDS011;59069;52.242;20.900;2023-03-31T12:17:53;11.40;;;3.50;;
70675;SDS011;59069;52.242;20.900;2023-03-31T12:20:28;10.98;;;3.40;;
70675;SDS011;59069;52.242;20.900;2023-03-31T12:22:57;10.18;;;3.58;;
70675;SDS011;59069;52.242;20.900;2023-03-31T12:25:29;10.50;;;3.30;;
70675;SDS011;59069;52.242;20.900;2023-03-31T12:28:16;9.80;;;4.00;;
70675;SDS011;59069;52.242;20.900;2023-03-31T12:30:43;11.52;;;4.25;;
70675;SDS011;59069;52.242;20.900;2023-03-31T12:33:33;11.93;;;3.33;;
70675;SDS011;59069;52.242;20.900;2023-03-31T12:38:45;10.90;;;3.80;;
70675;SDS011;59069;52.242;20.900;2023-03-31T12:41:31;10.03;;;3.90;;
70675;SDS011;59069;52.242;20.900;2023-03-31T12:44:23;8.77;;;3.20;;
70675;SDS011;59069;52.242;20.900;2023-03-31T12:55:30;9.63;;;3.83;;
70675;SDS011;59069;52.242;20.900;2023-03-31T13:14:01;8.68;;;3.70;;
70675;SDS011;59069;52.242;20.900;2023-03-31T13:16:33;10.57;;;3.20;;
70675;SDS011;59069;52.242;20.900;2023-03-31T13:19:00;9.30;;;3.03;;
70675;SDS011;59069;52.242;20.900;2023-03-31T13:21:26;8.77;;;3.33;;
70675;SDS011;59069;52.242;20.900;2023-03-31T13:23:52;9.77;;;3.47;;
70675;SDS011;59069;52.242;20.900;2023-03-31T13:26:57;8.40;;;3.03;;
70675;SDS011;59069;52.242;20.900;2023-03-31T13:29:18;8.85;;;3.30;;
70675;SDS011;59069;52.242;20.900;2023-03-31T13:34:27;7.70;;;3.00;;
70675;SDS011;59069;52.242;20.900;2023-03-31T14:05:25;8.38;;;2.88;;
70675;SDS011;59069;52.242;20.900;2023-03-31T14:07:59;9.07;;;2.90;;
70675;SDS011;59069;52.242;20.900;2023-03-31T14:10:30;13.65;;;3.05;;
70675;SDS011;59069;52.242;20.900;2023-03-31T14:13:17;7.60;;;2.60;;
70675;SDS011;59069;52.242;20.900;2023-03-31T14:15:49;9.13;;;2.40;;
70675;SDS011;59069;52.242;20.900;2023-03-31T14:18:25;8.05;;;2.35;;
70675;SDS011;59069;52.242;20.900;2023-03-31T14:20:55;9.50;;;3.07;;
70675;SDS011;59069;52.242;20.900;2023-03-31T14:31:42;9.15;;;2.42;;
70675;SDS011;59069;52.242;20.900;2023-03-31T14:34:27;10.23;;;2.90;;
70675;SDS011;59069;52.242;20.900;2023-03-31T14:37:13;9.30;;;2.63;;
70675;SDS011;59069;52.242;20.900;2023-03-31T14:39:46;9.38;;;2.55;;
70675;SDS011;59069;52.242;20.900;2023-03-31T14:42:15;8.55;;;2.42;;
70675;SDS011;59069;52.242;20.900;2023-03-31T14:44:42;9.80;;;3.05;;
70675;SDS011;59069;52.242;20.900;2023-03-31T14:47:42;8.37;;;2.63;;
70675;SDS011;59069;52.242;20.900;2023-03-31T14:50:02;11.52;;;3.05;;
70675;SDS011;59069;52.242;20.900;2023-03-31T14:52:33;7.53;;;2.53;;
70675;SDS011;59069;52.242;20.900;2023-03-31T14:54:59;7.82;;;2.97;;
70675;SDS011;59069;52.242;20.900;2023-03-31T14:57:30;9.05;;;2.78;;
70675;SDS011;59069;52.242;20.900;2023-03-31T15:00:02;8.40;;;2.93;;
70675;SDS011;59069;52.242;20.900;2023-03-31T15:02:33;11.02;;;3.00;;
70675;SDS011;59069;52.242;20.900;2023-03-31T15:05:04;7.47;;;2.47;;
70675;SDS011;59069;52.242;20.900;2023-03-31T15:07:39;8.05;;;2.72;;
70675;SDS011;59069;52.242;20.900;2023-03-31T15:10:05;8.70;;;2.70;;
70675;SDS011;59069;52.242;20.900;2023-03-31T15:12:31;9.13;;;2.70;;
70675;SDS011;59069;52.242;20.900;2023-03-31T15:15:00;8.95;;;2.88;;
70675;SDS011;59069;52.242;20.900;2023-03-31T15:17:31;9.02;;;2.50;;
70675;SDS011;59069;52.242;20.900;2023-03-31T15:20:20;7.72;;;2.83;;
70675;SDS011;59069;52.242;20.900;2023-03-31T15:22:52;9.85;;;3.00;;
70675;SDS011;59069;52.242;20.900;2023-03-31T15:25:19;9.53;;;3.10;;
70675;SDS011;59069;52.242;20.900;2023-03-31T15:27:59;7.95;;;2.80;;
70675;SDS011;59069;52.242;20.900;2023-03-31T15:30:28;8.77;;;3.20;;
70675;SDS011;59069;52.242;20.900;2023-03-31T15:32:55;6.90;;;3.10;;
70675;SDS011;59069;52.242;20.900;2023-03-31T15:35:31;7.78;;;3.65;;
70675;SDS011;59069;52.242;20.900;2023-03-31T15:37:58;7.97;;;3.60;;
70675;SDS011;59069;52.242;20.900;2023-03-31T15:40:36;9.02;;;3.92;;
70675;SDS011;59069;52.242;20.900;2023-03-31T15:45:52;9.68;;;3.20;;
70675;SDS011;59069;52.242;20.900;2023-03-31T15:48:22;6.88;;;2.80;;
70675;SDS011;59069;52.242;20.900;2023-03-31T15:51:06;6.83;;;2.73;;
70675;SDS011;59069;52.242;20.900;2023-03-31T15:53:55;5.93;;;2.63;;
70675;SDS011;59069;52.242;20.900;2023-03-31T15:59:00;7.50;;;2.78;;
70675;SDS011;59069;52.242;20.900;2023-03-31T16:01:30;6.20;;;2.30;;
70675;SDS011;59069;52.242;20.900;2023-03-31T16:04:00;6.65;;;2.03;;
70675;SDS011;59069;52.242;20.900;2023-03-31T16:09:03;6.68;;;2.00;;
70675;SDS011;59069;52.242;20.900;2023-03-31T16:16:53;5.57;;;1.77;;
70675;SDS011;59069;52.242;20.900;2023-03-31T16:19:42;7.18;;;2.85;;
70675;SDS011;59069;52.242;20.900;2023-03-31T16:22:14;6.72;;;2.50;;
70675;SDS011;59069;52.242;20.900;2023-03-31T16:24:45;5.80;;;2.13;;
70675;SDS011;59069;52.242;20.900;2023-03-31T16:27:11;6.43;;;2.20;;
70675;SDS011;59069;52.242;20.900;2023-03-31T16:29:37;6.13;;;2.22;;
70675;SDS011;59069;52.242;20.900;2023-03-31T16:32:18;6.03;;;2.25;;
70675;SDS011;59069;52.242;20.900;2023-03-31T16:34:51;6.70;;;2.00;;
70675;SDS011;59069;52.242;20.900;2023-03-31T16:37:24;7.00;;;2.15;;
70675;SDS011;59069;52.242;20.900;2023-03-31T16:39:50;5.63;;;1.90;;
70675;SDS011;59069;52.242;20.900;2023-03-31T16:42:17;7.00;;;2.10;;
70675;SDS011;59069;52.242;20.900;2023-03-31T16:44:44;8.13;;;2.03;;
70675;SDS011;59069;52.242;20.900;2023-03-31T16:47:13;6.35;;;2.00;;
70675;SDS011;59069;52.242;20.900;2023-03-31T16:49:39;7.82;;;2.58;;
70675;SDS011;59069;52.242;20.900;2023-03-31T16:52:06;7.05;;;2.10;;
70675;SDS011;59069;52.242;20.900;2023-03-31T16:54:33;6.93;;;1.92;;
70675;SDS011;59069;52.242;20.900;2023-03-31T16:56:59;5.80;;;2.07;;
70675;SDS011;59069;52.242;20.900;2023-03-31T16:59:25;6.43;;;2.13;;
70675;SDS011;59069;52.242;20.900;2023-03-31T17:01:51;6.67;;;1.90;;
70675;SDS011;59069;52.242;20.900;2023-03-31T17:04:16;8.40;;;1.77;;
70675;SDS011;59069;52.242;20.900;2023-03-31T17:06:42;6.33;;;1.83;;
70675;SDS011;59069;52.242;20.900;2023-03-31T17:09:08;6.53;;;1.70;;
70675;SDS011;59069;52.242;20.900;2023-03-31T17:11:34;6.45;;;1.50;;
70675;SDS011;59069;52.242;20.900;2023-03-31T17:14:00;7.67;;;1.93;;
70675;SDS011;59069;52.242;20.900;2023-03-31T17:16:26;5.97;;;1.90;;
70675;SDS011;59069;52.242;20.900;2023-03-31T17:18:52;5.43;;;1.98;;
70675;SDS011;59069;52.242;20.900;2023-03-31T17:21:18;6.40;;;2.10;;
70675;SDS011;59069;52.242;20.900;2023-03-31T17:23:44;7.30;;;2.00;;
70675;SDS011;59069;52.242;20.900;2023-03-31T17:26:10;9.48;;;2.40;;
70675;SDS011;59069;52.242;20.900;2023-03-31T17:28:37;8.25;;;2.30;;
70675;SDS011;59069;52.242;20.900;2023-03-31T17:31:10;6.50;;;2.47;;
70675;SDS011;59069;52.242;20.900;2023-03-31T17:33:40;6.63;;;2.40;;
70675;SDS011;59069;52.242;20.900;2023-03-31T17:36:07;8.02;;;2.80;;
70675;SDS011;59069;52.242;20.900;2023-03-31T17:38:33;9.02;;;3.88;;
70675;SDS011;59069;52.242;20.900;2023-03-31T17:41:03;9.38;;;3.55;;
70675;SDS011;59069;52.242;20.900;2023-03-31T17:43:30;9.67;;;4.13;;
70675;SDS011;59069;52.242;20.900;2023-03-31T17:46:00;9.20;;;4.43;;
70675;SDS011;59069;52.242;20.900;2023-03-31T17:48:32;11.93;;;4.50;;
70675;SDS011;59069;52.242;20.900;2023-03-31T17:51:05;11.77;;;4.80;;
70675;SDS011;59069;52.242;20.900;2023-03-31T17:53:33;12.20;;;5.13;;
70675;SDS011;59069;52.242;20.900;2023-03-31T17:56:00;10.57;;;5.07;;
70675;SDS011;59069;52.242;20.900;2023-03-31T17:58:26;12.50;;;5.65;;
70675;SDS011;59069;52.242;20.900;2023-03-31T18:00:52;14.77;;;6.15;;
70675;SDS011;59069;52.242;20.900;2023-03-31T18:03:18;11.73;;;5.32;;
70675;SDS011;59069;52.242;20.900;2023-03-31T18:05:44;15.50;;;6.10;;
70675;SDS011;59069;52.242;20.900;2023-03-31T18:08:09;12.45;;;5.70;;